createdAt,value
2023-04-29T00:02:31.202Z,19.00
2023-04-29T00:05:29.276Z,20.00
2023-04-29T00:08:39.646Z,19.60
2023-04-29T00:11:48.242Z,20.20
2023-04-29T00:14:56.066Z,19.50
2023-04-29T00:18:06.983Z,19.40
2023-04-29T00:21:15.484Z,19.60
2023-04-29T00:24:23.856Z,20.70
2023-04-29T00:27:33.182Z,20.20
2023-04-29T00:30:40.893Z,20.40
2023-04-29T00:33:48.645Z,21.70
2023-04-29T00:36:57.226Z,21.70
2023-04-29T00:40:06.427Z,21.40
2023-04-29T00:43:14.245Z,21.30
2023-04-29T00:46:22.083Z,22.20
2023-04-29T00:49:31.258Z,22.50
2023-04-29T00:52:39.192Z,23.20
2023-04-29T00:55:46.999Z,24.70
2023-04-29T00:58:56.084Z,23.90
2023-04-29T01:02:03.995Z,25.20
2023-04-29T01:05:11.786Z,25.90
2023-04-29T01:08:20.962Z,26.80
2023-04-29T01:11:29.023Z,27.30
2023-04-29T01:14:36.941Z,28.20
2023-04-29T01:17:44.823Z,28.90
2023-04-29T01:20:53.997Z,29.90
2023-04-29T01:24:01.894Z,30.50
2023-04-29T01:27:10.049Z,30.40
2023-04-29T01:30:19.275Z,32.10
2023-04-29T01:33:26.964Z,32.10
2023-04-29T01:36:34.655Z,32.80
2023-04-29T01:39:43.719Z,32.00
2023-04-29T01:42:51.674Z,32.50
2023-04-29T01:45:59.413Z,33.30
2023-04-29T01:49:08.585Z,33.60
2023-04-29T01:52:16.310Z,34.60
2023-04-29T01:55:24.085Z,34.30
2023-04-29T01:58:33.494Z,34.10
2023-04-29T02:01:41.218Z,34.10
2023-04-29T02:04:48.970Z,35.50
2023-04-29T02:07:56.690Z,35.20
2023-04-29T02:11:05.765Z,35.00
2023-04-29T02:14:13.465Z,36.00
2023-04-29T02:17:21.476Z,36.30
2023-04-29T02:20:30.755Z,37.60
2023-04-29T02:23:38.610Z,37.40
2023-04-29T02:26:46.377Z,36.40
2023-04-29T02:29:55.675Z,35.70
2023-04-29T02:33:03.877Z,36.50
2023-04-29T02:36:12.483Z,35.30
2023-04-29T02:39:21.502Z,36.60
2023-04-29T02:42:29.187Z,35.80
2023-04-29T02:45:36.942Z,37.60
2023-04-29T02:48:44.768Z,40.20
2023-04-29T02:51:54.016Z,41.70
2023-04-29T02:55:01.827Z,41.50
2023-04-29T02:58:09.515Z,37.50
2023-04-29T03:01:18.709Z,39.50
2023-04-29T03:04:26.615Z,39.60
2023-04-29T03:07:34.563Z,41.40
2023-04-29T03:10:43.731Z,38.50
2023-04-29T03:13:51.615Z,38.00
2023-04-29T03:16:59.444Z,37.50
2023-04-29T03:20:09.467Z,37.20
2023-04-29T03:23:17.322Z,37.40
2023-04-29T03:26:26.052Z,35.60
2023-04-29T03:29:33.849Z,35.30
2023-04-29T03:32:43.168Z,34.80
2023-04-29T03:35:50.901Z,36.40
2023-04-29T03:38:58.820Z,34.50
2023-04-29T03:42:08.012Z,35.30
2023-04-29T03:45:16.587Z,34.80
2023-04-29T03:48:24.225Z,35.50
2023-04-29T03:51:33.445Z,35.00
2023-04-29T03:54:41.166Z,36.00
2023-04-29T03:57:48.818Z,36.10
2023-04-29T04:00:58.127Z,35.50
2023-04-29T04:04:05.956Z,37.00
2023-04-29T04:07:13.667Z,36.90
2023-04-29T04:10:22.841Z,36.80
2023-04-29T04:13:30.621Z,36.60
2023-04-29T04:16:38.447Z,36.50
2023-04-29T04:19:46.401Z,35.50
2023-04-29T04:22:55.599Z,33.30
2023-04-29T04:26:03.563Z,32.80
2023-04-29T04:29:11.266Z,30.50
2023-04-29T04:32:20.556Z,28.40
2023-04-29T04:35:28.317Z,28.10
2023-04-29T04:38:36.060Z,28.50
2023-04-29T04:41:45.265Z,28.00
2023-04-29T04:44:53.239Z,29.10
2023-04-29T04:48:01.155Z,28.20
2023-04-29T04:51:10.300Z,27.70
2023-04-29T04:54:18.302Z,28.20
2023-04-29T04:57:26.513Z,26.50
2023-04-29T05:00:34.247Z,29.50
2023-04-29T05:03:43.839Z,26.60
2023-04-29T05:06:51.776Z,26.30
2023-04-29T05:09:59.485Z,28.60
2023-04-29T05:13:08.698Z,28.90
2023-04-29T05:16:16.910Z,29.40
2023-04-29T05:19:24.688Z,29.80
2023-04-29T05:22:33.886Z,31.10
2023-04-29T05:25:41.876Z,29.60
2023-04-29T05:28:50.869Z,28.40
2023-04-29T05:32:00.384Z,29.70
2023-04-29T05:35:08.142Z,30.80
2023-04-29T05:38:16.179Z,31.70
2023-04-29T05:41:25.558Z,30.60
2023-04-29T05:44:33.735Z,29.30
2023-04-29T05:47:41.507Z,31.50
2023-04-29T05:50:49.186Z,32.60
2023-04-29T05:53:58.522Z,31.70
2023-04-29T05:57:06.107Z,26.50
2023-04-29T06:00:15.459Z,29.90
2023-04-29T06:03:14.912Z,31.60
2023-04-29T06:06:22.710Z,32.40
2023-04-29T06:09:30.761Z,31.30
2023-04-29T06:12:40.042Z,30.40
2023-04-29T06:15:48.091Z,30.90
2023-04-29T06:18:57.543Z,30.50
2023-04-29T06:22:07.521Z,29.90
2023-04-29T06:25:15.497Z,29.80
2023-04-29T06:28:23.445Z,28.20
2023-04-29T06:31:31.166Z,27.50
2023-04-29T06:34:40.444Z,28.40
2023-04-29T06:37:48.191Z,25.40
2023-04-29T06:40:56.083Z,23.80
2023-04-29T06:44:05.472Z,19.50
2023-04-29T06:47:13.441Z,17.90
2023-04-29T06:50:21.505Z,15.00
2023-04-29T06:53:30.667Z,13.80
2023-04-29T06:56:38.723Z,13.50
2023-04-29T06:59:46.880Z,13.80
2023-04-29T07:02:56.105Z,13.60
2023-04-29T07:06:03.788Z,11.10
2023-04-29T07:09:11.545Z,13.90
2023-04-29T07:12:20.428Z,14.20
2023-04-29T07:15:29.532Z,15.00
2023-04-29T07:18:37.989Z,15.00
2023-04-29T07:21:45.767Z,15.90
2023-04-29T07:24:55.170Z,15.90
2023-04-29T07:28:02.912Z,15.50
2023-04-29T07:31:11.053Z,16.20
2023-04-29T07:34:20.741Z,18.10
2023-04-29T07:37:28.518Z,16.90
2023-04-29T07:40:36.333Z,17.90
2023-04-29T07:43:45.464Z,17.40
2023-04-29T07:46:53.354Z,18.00
2023-04-29T07:50:00.994Z,16.80
2023-04-29T07:53:10.188Z,16.70
2023-04-29T07:56:17.891Z,17.10
2023-04-29T07:59:25.563Z,15.60
2023-04-29T08:02:33.931Z,16.60
2023-04-29T08:05:43.660Z,15.30
2023-04-29T08:08:51.324Z,16.50
2023-04-29T08:11:59.074Z,16.90
2023-04-29T08:15:09.744Z,16.90
2023-04-29T08:18:17.899Z,15.40
2023-04-29T08:21:25.675Z,15.60
2023-04-29T08:24:34.707Z,13.40
2023-04-29T08:27:42.551Z,13.50
2023-04-29T08:30:50.367Z,13.30
2023-04-29T08:33:59.519Z,12.80
2023-04-29T08:37:07.232Z,11.90
2023-04-29T08:40:15.111Z,11.30
2023-04-29T08:43:22.848Z,12.30
2023-04-29T08:46:32.075Z,12.60
2023-04-29T08:49:39.743Z,12.80
2023-04-29T08:52:47.441Z,12.20
2023-04-29T08:55:56.740Z,12.00
2023-04-29T08:59:04.509Z,10.00
2023-04-29T09:02:13.311Z,10.60
2023-04-29T09:05:22.895Z,11.70
2023-04-29T09:08:30.516Z,10.10
2023-04-29T09:11:39.113Z,9.90
2023-04-29T09:14:49.154Z,9.60
2023-04-29T09:17:56.883Z,9.20
2023-04-29T09:21:05.411Z,9.80
2023-04-29T09:24:14.106Z,8.70
2023-04-29T09:27:23.284Z,7.80
2023-04-29T09:30:31.836Z,8.40
2023-04-29T09:33:39.880Z,7.10
2023-04-29T09:36:49.379Z,7.80
2023-04-29T09:39:57.860Z,7.20
2023-04-29T09:43:05.846Z,7.40
2023-04-29T09:46:15.360Z,7.30
2023-04-29T09:49:23.937Z,7.30
2023-04-29T09:52:31.971Z,7.20
2023-04-29T09:55:41.582Z,6.60
2023-04-29T09:58:49.705Z,5.90
2023-04-29T10:01:58.473Z,5.70
2023-04-29T10:05:08.154Z,6.00
2023-04-29T10:08:16.106Z,5.50
2023-04-29T10:11:24.672Z,5.90
2023-04-29T10:14:32.325Z,6.10
2023-04-29T10:17:42.161Z,6.00
2023-04-29T10:20:50.677Z,5.90
2023-04-29T10:23:58.479Z,5.10
2023-04-29T10:27:08.334Z,4.70
2023-04-29T10:30:16.340Z,4.90
2023-04-29T10:33:24.975Z,5.10
2023-04-29T10:36:34.400Z,5.00
2023-04-29T10:39:42.729Z,4.80
2023-04-29T10:42:50.504Z,4.80
2023-04-29T10:46:00.623Z,5.10
2023-04-29T10:49:08.374Z,5.50
2023-04-29T10:52:17.024Z,4.90
2023-04-29T10:55:25.123Z,4.80
2023-04-29T10:58:34.230Z,4.40
2023-04-29T11:01:42.880Z,4.70
2023-04-29T11:04:50.925Z,5.80
2023-04-29T11:08:00.464Z,5.60
2023-04-29T11:11:08.963Z,5.50
2023-04-29T11:14:17.146Z,5.10
2023-04-29T11:17:28.347Z,5.90
2023-04-29T11:20:36.854Z,5.10
2023-04-29T11:23:45.026Z,5.00
2023-04-29T11:26:54.497Z,5.50
2023-04-29T11:30:02.778Z,5.10
2023-04-29T11:33:10.651Z,5.40
2023-04-29T11:36:20.141Z,5.00
2023-04-29T11:39:28.280Z,4.90
2023-04-29T11:42:36.029Z,4.50
2023-04-29T11:45:44.237Z,5.00
2023-04-29T11:48:53.842Z,4.20
2023-04-29T11:52:02.003Z,5.50
2023-04-29T11:55:10.425Z,4.40
2023-04-29T11:58:20.010Z,5.40
2023-04-29T12:01:28.263Z,5.00
2023-04-29T12:04:37.100Z,5.10
2023-04-29T12:07:46.672Z,6.00
2023-04-29T12:10:54.874Z,5.20
2023-04-29T12:14:03.344Z,5.90
2023-04-29T12:17:12.841Z,5.70
2023-04-29T12:20:21.779Z,5.80
2023-04-29T12:23:29.582Z,5.60
2023-04-29T12:26:38.145Z,5.90
2023-04-29T12:29:48.036Z,6.00
2023-04-29T12:32:55.880Z,5.90
2023-04-29T12:36:04.487Z,5.10
2023-04-29T12:39:14.397Z,5.70
2023-04-29T12:42:22.153Z,4.80
2023-04-29T12:45:30.759Z,4.90
2023-04-29T12:48:41.514Z,4.80
2023-04-29T12:51:49.623Z,4.50
2023-04-29T12:54:58.210Z,4.30
2023-04-29T12:58:07.765Z,4.40
2023-04-29T13:01:18.423Z,4.20
2023-04-29T13:04:16.205Z,4.50
2023-04-29T13:07:26.019Z,4.40
2023-04-29T13:10:34.492Z,5.00
2023-04-29T13:13:43.148Z,4.40
2023-04-29T13:16:51.500Z,5.30
2023-04-29T13:20:00.995Z,4.70
2023-04-29T13:23:09.134Z,4.40
2023-04-29T13:26:17.570Z,4.80
2023-04-29T13:29:27.307Z,4.70
2023-04-29T13:32:43.980Z,4.30
2023-04-29T13:35:41.371Z,4.20
2023-04-29T13:38:55.074Z,4.40
2023-04-29T13:41:58.344Z,4.30
2023-04-29T13:44:56.936Z,4.40
2023-04-29T13:48:20.103Z,4.80
2023-04-29T13:51:34.515Z,4.20
2023-04-29T13:58:02.790Z,4.20
2023-04-29T14:03:25.030Z,3.90
2023-04-29T14:06:33.272Z,3.70
2023-04-29T14:09:43.399Z,3.20
2023-04-29T14:12:51.902Z,3.80
2023-04-29T14:16:00.235Z,3.80
2023-04-29T14:19:10.041Z,3.30
2023-04-29T14:22:18.250Z,3.70
2023-04-29T14:25:28.488Z,3.20
2023-04-29T14:28:27.790Z,3.40
2023-04-29T14:31:36.837Z,3.10
2023-04-29T14:34:45.271Z,3.20
2023-04-29T14:37:53.340Z,3.70
2023-04-29T14:41:03.845Z,3.40
2023-04-29T14:44:12.279Z,3.20
2023-04-29T14:47:20.768Z,3.50
2023-04-29T14:50:30.600Z,3.30
2023-04-29T14:53:38.977Z,3.60
2023-04-29T14:56:47.783Z,3.60
2023-04-29T14:59:58.014Z,3.90
2023-04-29T15:03:06.475Z,3.60
2023-04-29T15:06:15.539Z,3.20
2023-04-29T15:09:25.974Z,3.30
2023-04-29T15:12:34.322Z,3.40
2023-04-29T15:15:42.985Z,3.70
2023-04-29T15:18:52.239Z,3.70
2023-04-29T15:22:02.579Z,3.60
2023-04-29T15:25:10.913Z,3.60
2023-04-29T15:28:19.946Z,3.60
2023-04-29T15:31:30.820Z,3.70
2023-04-29T15:34:39.653Z,3.20
2023-04-29T15:37:48.014Z,3.10
2023-04-29T15:40:57.901Z,3.60
2023-04-29T15:44:06.010Z,3.30
2023-04-29T15:47:15.489Z,3.30
2023-04-29T15:50:25.590Z,3.50
2023-04-29T15:53:34.683Z,3.10
2023-04-29T15:56:43.064Z,3.10
2023-04-29T15:59:53.469Z,3.10
2023-04-29T16:03:02.577Z,3.00
2023-04-29T16:06:11.187Z,3.20
2023-04-29T16:09:19.534Z,2.60
2023-04-29T16:12:29.440Z,3.10
2023-04-29T16:15:38.129Z,3.20
2023-04-29T16:18:46.164Z,2.90
2023-04-29T16:21:56.414Z,3.00
2023-04-29T16:25:05.097Z,3.00
2023-04-29T16:28:05.911Z,3.40
2023-04-29T16:28:49.151Z,3.20
2023-04-29T16:31:58.833Z,3.40
2023-04-29T16:35:08.488Z,3.60
2023-04-29T16:38:16.960Z,3.50
2023-04-29T16:41:26.790Z,3.60
2023-04-29T16:44:36.003Z,3.30
2023-04-29T16:47:44.402Z,3.20
2023-04-29T16:50:54.727Z,3.20
2023-04-29T16:54:03.062Z,3.40
2023-04-29T16:57:12.119Z,3.50
2023-04-29T17:00:20.700Z,3.40
2023-04-29T17:03:30.653Z,3.40
2023-04-29T17:06:40.106Z,3.50
2023-04-29T17:09:48.525Z,3.40
2023-04-29T17:12:59.170Z,3.00
2023-04-29T17:16:07.786Z,3.70
2023-04-29T17:19:16.646Z,3.70
2023-04-29T17:22:26.849Z,3.40
2023-04-29T17:25:35.153Z,3.40
2023-04-29T17:28:43.663Z,3.20
2023-04-29T17:31:53.880Z,3.80
2023-04-29T17:35:02.908Z,3.40
2023-04-29T17:38:11.725Z,4.10
2023-04-29T17:41:21.416Z,3.30
2023-04-29T17:44:30.701Z,3.70
2023-04-29T17:47:38.989Z,3.30
2023-04-29T17:50:48.267Z,3.60
2023-04-29T17:53:58.548Z,3.20
2023-04-29T17:57:07.319Z,4.00
2023-04-29T18:00:16.067Z,3.40
2023-04-29T18:03:26.601Z,4.70
2023-04-29T18:06:35.743Z,3.50
2023-04-29T18:09:44.622Z,4.00
2023-04-29T18:12:54.839Z,4.20
2023-04-29T18:16:03.542Z,3.70
2023-04-29T18:19:12.849Z,3.80
2023-04-29T18:22:23.190Z,3.40
2023-04-29T18:25:31.701Z,3.50
2023-04-29T18:28:40.112Z,3.80
2023-04-29T18:31:48.845Z,3.40
2023-04-29T18:34:58.358Z,3.70
2023-04-29T18:38:07.150Z,4.10
2023-04-29T18:38:50.532Z,4.70
2023-04-29T18:41:59.590Z,4.00
2023-04-29T18:45:00.475Z,4.90
2023-04-29T18:48:09.170Z,5.60
2023-04-29T18:51:17.776Z,6.50
2023-04-29T18:54:27.478Z,9.20
2023-04-29T18:57:35.967Z,3.70
2023-04-29T19:00:44.589Z,4.40
2023-04-29T19:03:55.336Z,6.10
2023-04-29T19:07:04.009Z,4.00
2023-04-29T19:10:12.441Z,3.90
2023-04-29T19:13:22.327Z,3.40
2023-04-29T19:16:31.291Z,4.00
2023-04-29T19:19:39.828Z,3.30
2023-04-29T19:22:49.156Z,3.80
2023-04-29T19:25:58.841Z,3.30
2023-04-29T19:29:07.264Z,3.90
2023-04-29T19:32:16.576Z,2.80
2023-04-29T19:35:26.305Z,3.30
2023-04-29T19:38:34.640Z,2.80
2023-04-29T19:41:43.472Z,2.70
2023-04-29T19:44:53.361Z,3.00
2023-04-29T19:48:02.351Z,2.80
2023-04-29T19:51:10.536Z,2.30
2023-04-29T19:54:11.100Z,2.10
2023-04-29T19:57:20.430Z,2.40
2023-04-29T20:00:29.483Z,2.60
2023-04-29T20:03:37.794Z,2.60
2023-04-29T20:06:48.240Z,2.50
2023-04-29T20:09:57.130Z,3.10
2023-04-29T20:13:05.734Z,3.30
2023-04-29T20:16:15.989Z,3.00
2023-04-29T20:19:24.285Z,3.20
2023-04-29T20:22:33.023Z,2.90
2023-04-29T20:25:43.831Z,2.60
2023-04-29T20:28:52.696Z,2.80
2023-04-29T20:32:01.654Z,3.60
2023-04-29T20:35:03.478Z,3.50
2023-04-29T20:38:13.158Z,2.80
2023-04-29T20:41:21.306Z,3.20
2023-04-29T20:44:31.390Z,3.00
2023-04-29T20:47:40.521Z,2.60
2023-04-29T20:50:49.461Z,3.20
2023-04-29T20:53:58.464Z,2.80
2023-04-29T20:57:08.655Z,3.40
2023-04-29T21:00:19.411Z,2.80
2023-04-29T21:03:27.975Z,2.70
2023-04-29T21:06:38.074Z,2.40
2023-04-29T21:09:46.969Z,2.60
2023-04-29T21:12:55.330Z,2.30
2023-04-29T21:16:05.134Z,2.60
2023-04-29T21:19:13.956Z,2.50
2023-04-29T21:22:22.793Z,3.40
2023-04-29T21:25:31.946Z,2.50
2023-04-29T21:28:40.383Z,2.90
2023-04-29T21:31:48.619Z,2.40
2023-04-29T21:34:57.219Z,2.90
2023-04-29T21:38:07.792Z,2.70
2023-04-29T21:41:16.175Z,2.80
2023-04-29T21:44:24.618Z,2.80
2023-04-29T21:47:34.552Z,2.90
2023-04-29T21:50:43.436Z,3.00
2023-04-29T21:53:52.418Z,3.10
2023-04-29T21:57:02.448Z,3.20
2023-04-29T22:00:10.648Z,3.30
2023-04-29T22:03:20.168Z,3.20
2023-04-29T22:06:29.949Z,4.10
2023-04-29T22:09:38.494Z,3.50
2023-04-29T22:12:47.038Z,3.80
2023-04-29T22:15:57.657Z,3.70
2023-04-29T22:19:05.955Z,3.60
2023-04-29T22:22:14.824Z,3.60
2023-04-29T22:25:23.618Z,4.00
2023-04-29T22:28:33.553Z,4.40
2023-04-29T22:31:42.617Z,4.10
2023-04-29T22:34:50.479Z,4.50
2023-04-29T22:38:00.545Z,4.50
2023-04-29T22:41:09.000Z,4.70
2023-04-29T22:44:17.964Z,4.50
2023-04-29T22:47:27.713Z,4.80
2023-04-29T22:50:36.538Z,5.10
2023-04-29T22:53:44.938Z,5.00
2023-04-29T22:56:55.341Z,4.80
2023-04-29T23:00:04.050Z,5.10
2023-04-29T23:03:12.435Z,5.40
2023-04-29T23:06:21.553Z,5.30
2023-04-29T23:09:31.633Z,4.50
2023-04-29T23:12:40.565Z,5.30
2023-04-29T23:15:49.480Z,4.90
2023-04-29T23:19:00.203Z,5.20
2023-04-29T23:22:08.630Z,4.60
2023-04-29T23:25:17.802Z,5.40
2023-04-29T23:28:27.771Z,5.30
2023-04-29T23:31:36.681Z,5.80
2023-04-29T23:34:46.149Z,5.00
2023-04-29T23:37:55.837Z,4.70
2023-04-29T23:41:04.888Z,4.30
2023-04-29T23:44:13.730Z,4.70
2023-04-29T23:47:24.344Z,3.30
2023-04-29T23:50:32.607Z,3.80
2023-04-29T23:53:42.337Z,3.70
2023-04-29T23:56:50.519Z,3.80
